Terminal Aerodrome Forecast
Issued by NWS Brownsville, TX

Home | Current Version | Previous Version | Text Only | Print | Product List | Glossary On
Versions: 1 2 3 4 5 6 7 8 9 10 11 12 13 14 15 16 17
152
FTUS44 KBRO 061728
TAFMFE
TAF
KMFE 061728Z 0618/0718 31012G19KT P6SM SKC
     FM070100 35006KT P6SM SKC
     FM070300 02005KT P6SM SKC
     FM071600 14005KT P6SM SKC=

USA.gov is the U.S. government's official web portal to all federal, state and local government web resources and services.